Hayesville, North Carolina
Current Conditions -  °F | °C
As of 6:55 PM on Sunday 21 Dec 2014 (Local Time) from KRHP Reporting Station
Overcast Overcast  
Wind Chill: 49°   Ceiling: 3400
Heat Index: 49°   Visibility: 10mi
Dew Point: 41°   Wind: 0mph
Humidity: 75%   Direction: NA
Pressure: 30.1"   Gusts: NA
Location:  35.05°N, 83.82°W
Report Text: KRHP 212355Z AUTO 00000KT 10SM OVC034 09/05 A3010 RMK AO2 T00930050 10105 20078
Loading
Personal Weather Stations






























Interactive Weather Map New forecast layout! Learn more

10-Day Weather Forecast

Advertisements
Track Severe Weather on mobile